sensor_id;sensor_type;location;lat;lon;timestamp;P1;durP1;ratioP1;P2;durP2;ratioP2
4464;SDS011;2245;48.136;13.428;2023-03-05T00:02:05;39.70;;;14.77;;
4464;SDS011;2245;48.136;13.428;2023-03-05T00:04:32;46.43;;;16.33;;
4464;SDS011;2245;48.136;13.428;2023-03-05T00:06:59;32.90;;;14.67;;
4464;SDS011;2245;48.136;13.428;2023-03-05T00:09:26;41.37;;;15.13;;
4464;SDS011;2245;48.136;13.428;2023-03-05T00:11:53;42.73;;;16.47;;
4464;SDS011;2245;48.136;13.428;2023-03-05T00:14:21;50.50;;;16.60;;
4464;SDS011;2245;48.136;13.428;2023-03-05T00:16:48;50.33;;;17.23;;
4464;SDS011;2245;48.136;13.428;2023-03-05T00:19:16;46.73;;;18.23;;
4464;SDS011;2245;48.136;13.428;2023-03-05T00:21:43;33.70;;;13.40;;
4464;SDS011;2245;48.136;13.428;2023-03-05T00:24:10;60.53;;;17.23;;
4464;SDS011;2245;48.136;13.428;2023-03-05T00:26:39;42.40;;;16.30;;
4464;SDS011;2245;48.136;13.428;2023-03-05T00:29:07;38.83;;;14.10;;
4464;SDS011;2245;48.136;13.428;2023-03-05T00:31:34;44.50;;;15.20;;
4464;SDS011;2245;48.136;13.428;2023-03-05T00:34:03;43.23;;;15.63;;
4464;SDS011;2245;48.136;13.428;2023-03-05T00:36:32;42.20;;;15.03;;
4464;SDS011;2245;48.136;13.428;2023-03-05T00:38:59;44.53;;;15.70;;
4464;SDS011;2245;48.136;13.428;2023-03-05T00:41:26;41.73;;;18.40;;
4464;SDS011;2245;48.136;13.428;2023-03-05T00:43:53;49.40;;;16.60;;
4464;SDS011;2245;48.136;13.428;2023-03-05T00:46:20;48.73;;;17.17;;
4464;SDS011;2245;48.136;13.428;2023-03-05T00:48:48;41.43;;;14.80;;
4464;SDS011;2245;48.136;13.428;2023-03-05T00:51:15;42.80;;;16.97;;
4464;SDS011;2245;48.136;13.428;2023-03-05T00:53:43;43.50;;;14.70;;
4464;SDS011;2245;48.136;13.428;2023-03-05T00:56:10;37.70;;;14.97;;
4464;SDS011;2245;48.136;13.428;2023-03-05T00:58:37;33.73;;;16.27;;
4464;SDS011;2245;48.136;13.428;2023-03-05T01:01:04;52.30;;;17.10;;
4464;SDS011;2245;48.136;13.428;2023-03-05T01:03:31;40.73;;;16.00;;
4464;SDS011;2245;48.136;13.428;2023-03-05T01:05:59;44.03;;;15.60;;
4464;SDS011;2245;48.136;13.428;2023-03-05T01:08:26;44.87;;;14.67;;
4464;SDS011;2245;48.136;13.428;2023-03-05T01:10:55;32.53;;;13.37;;
4464;SDS011;2245;48.136;13.428;2023-03-05T01:13:22;35.03;;;14.10;;
4464;SDS011;2245;48.136;13.428;2023-03-05T01:15:49;35.13;;;14.30;;
4464;SDS011;2245;48.136;13.428;2023-03-05T01:18:16;32.17;;;13.70;;
4464;SDS011;2245;48.136;13.428;2023-03-05T01:20:43;31.10;;;13.17;;
4464;SDS011;2245;48.136;13.428;2023-03-05T01:23:10;33.83;;;15.00;;
4464;SDS011;2245;48.136;13.428;2023-03-05T01:25:37;32.83;;;14.63;;
4464;SDS011;2245;48.136;13.428;2023-03-05T01:28:05;31.93;;;12.53;;
4464;SDS011;2245;48.136;13.428;2023-03-05T01:30:32;30.57;;;12.87;;
4464;SDS011;2245;48.136;13.428;2023-03-05T01:32:59;33.50;;;12.90;;
4464;SDS011;2245;48.136;13.428;2023-03-05T01:35:27;32.70;;;14.63;;
4464;SDS011;2245;48.136;13.428;2023-03-05T01:37:54;38.33;;;16.20;;
4464;SDS011;2245;48.136;13.428;2023-03-05T01:40:23;40.33;;;15.00;;
4464;SDS011;2245;48.136;13.428;2023-03-05T01:42:55;40.90;;;15.40;;
4464;SDS011;2245;48.136;13.428;2023-03-05T01:45:25;38.57;;;14.20;;
4464;SDS011;2245;48.136;13.428;2023-03-05T01:47:54;37.10;;;15.37;;
4464;SDS011;2245;48.136;13.428;2023-03-05T01:50:21;41.47;;;16.50;;
4464;SDS011;2245;48.136;13.428;2023-03-05T01:52:51;35.10;;;13.07;;
4464;SDS011;2245;48.136;13.428;2023-03-05T01:55:20;27.80;;;13.17;;
4464;SDS011;2245;48.136;13.428;2023-03-05T01:57:49;32.43;;;13.57;;
4464;SDS011;2245;48.136;13.428;2023-03-05T02:00:19;33.77;;;11.00;;
4464;SDS011;2245;48.136;13.428;2023-03-05T02:02:49;36.30;;;13.37;;
4464;SDS011;2245;48.136;13.428;2023-03-05T02:05:18;41.30;;;14.10;;
4464;SDS011;2245;48.136;13.428;2023-03-05T02:07:51;41.73;;;14.27;;
4464;SDS011;2245;48.136;13.428;2023-03-05T02:10:19;36.93;;;12.83;;
4464;SDS011;2245;48.136;13.428;2023-03-05T02:12:47;38.77;;;14.50;;
4464;SDS011;2245;48.136;13.428;2023-03-05T02:15:15;40.20;;;13.93;;
4464;SDS011;2245;48.136;13.428;2023-03-05T02:17:42;45.73;;;14.70;;
4464;SDS011;2245;48.136;13.428;2023-03-05T02:20:11;41.77;;;11.40;;
4464;SDS011;2245;48.136;13.428;2023-03-05T02:22:41;54.83;;;15.90;;
4464;SDS011;2245;48.136;13.428;2023-03-05T02:25:12;27.67;;;10.77;;
4464;SDS011;2245;48.136;13.428;2023-03-05T02:27:41;32.57;;;12.83;;
4464;SDS011;2245;48.136;13.428;2023-03-05T02:30:09;38.23;;;15.67;;
4464;SDS011;2245;48.136;13.428;2023-03-05T02:32:36;55.97;;;16.90;;
4464;SDS011;2245;48.136;13.428;2023-03-05T02:35:04;41.00;;;15.93;;
4464;SDS011;2245;48.136;13.428;2023-03-05T02:37:31;39.00;;;15.17;;
4464;SDS011;2245;48.136;13.428;2023-03-05T02:39:59;36.37;;;15.67;;
4464;SDS011;2245;48.136;13.428;2023-03-05T02:42:26;43.30;;;16.43;;
4464;SDS011;2245;48.136;13.428;2023-03-05T02:44:55;43.87;;;15.67;;
4464;SDS011;2245;48.136;13.428;2023-03-05T02:47:21;50.23;;;15.77;;
4464;SDS011;2245;48.136;13.428;2023-03-05T02:49:48;37.40;;;16.33;;
4464;SDS011;2245;48.136;13.428;2023-03-05T02:52:15;50.17;;;18.13;;
4464;SDS011;2245;48.136;13.428;2023-03-05T02:54:42;49.20;;;16.50;;
4464;SDS011;2245;48.136;13.428;2023-03-05T02:57:10;50.83;;;17.20;;
4464;SDS011;2245;48.136;13.428;2023-03-05T02:59:37;52.23;;;20.20;;
4464;SDS011;2245;48.136;13.428;2023-03-05T03:02:04;49.73;;;16.07;;
4464;SDS011;2245;48.136;13.428;2023-03-05T03:04:31;42.80;;;17.30;;
4464;SDS011;2245;48.136;13.428;2023-03-05T03:06:58;45.20;;;17.67;;
4464;SDS011;2245;48.136;13.428;2023-03-05T03:09:25;52.63;;;17.73;;
4464;SDS011;2245;48.136;13.428;2023-03-05T03:11:52;46.33;;;17.00;;
4464;SDS011;2245;48.136;13.428;2023-03-05T03:14:20;48.40;;;17.97;;
4464;SDS011;2245;48.136;13.428;2023-03-05T03:16:47;44.00;;;17.67;;
4464;SDS011;2245;48.136;13.428;2023-03-05T03:19:14;39.00;;;15.10;;
4464;SDS011;2245;48.136;13.428;2023-03-05T03:21:41;42.30;;;15.33;;
4464;SDS011;2245;48.136;13.428;2023-03-05T03:24:08;47.13;;;18.30;;
4464;SDS011;2245;48.136;13.428;2023-03-05T03:26:35;45.57;;;16.47;;
4464;SDS011;2245;48.136;13.428;2023-03-05T03:29:02;50.93;;;14.20;;
4464;SDS011;2245;48.136;13.428;2023-03-05T03:31:30;57.57;;;18.40;;
4464;SDS011;2245;48.136;13.428;2023-03-05T03:33:57;46.70;;;18.17;;
4464;SDS011;2245;48.136;13.428;2023-03-05T03:36:24;50.73;;;17.37;;
4464;SDS011;2245;48.136;13.428;2023-03-05T03:38:50;53.30;;;18.37;;
4464;SDS011;2245;48.136;13.428;2023-03-05T03:41:17;55.93;;;17.60;;
4464;SDS011;2245;48.136;13.428;2023-03-05T03:43:44;48.87;;;18.43;;
4464;SDS011;2245;48.136;13.428;2023-03-05T03:46:11;41.67;;;16.67;;
4464;SDS011;2245;48.136;13.428;2023-03-05T03:48:39;41.67;;;16.20;;
4464;SDS011;2245;48.136;13.428;2023-03-05T03:51:06;46.30;;;17.30;;
4464;SDS011;2245;48.136;13.428;2023-03-05T03:53:33;47.37;;;15.90;;
4464;SDS011;2245;48.136;13.428;2023-03-05T03:56:00;43.67;;;16.53;;
4464;SDS011;2245;48.136;13.428;2023-03-05T03:58:28;44.67;;;16.17;;
4464;SDS011;2245;48.136;13.428;2023-03-05T04:00:55;44.27;;;15.53;;
4464;SDS011;2245;48.136;13.428;2023-03-05T04:03:22;44.17;;;15.50;;
4464;SDS011;2245;48.136;13.428;2023-03-05T04:05:50;41.27;;;15.23;;
4464;SDS011;2245;48.136;13.428;2023-03-05T04:08:17;41.17;;;15.93;;
4464;SDS011;2245;48.136;13.428;2023-03-05T04:10:43;55.53;;;16.27;;
4464;SDS011;2245;48.136;13.428;2023-03-05T04:13:10;48.00;;;16.00;;
4464;SDS011;2245;48.136;13.428;2023-03-05T04:15:37;44.17;;;14.97;;
4464;SDS011;2245;48.136;13.428;2023-03-05T04:18:04;37.97;;;15.50;;
4464;SDS011;2245;48.136;13.428;2023-03-05T04:20:31;36.30;;;14.20;;
4464;SDS011;2245;48.136;13.428;2023-03-05T04:22:59;39.67;;;13.40;;
4464;SDS011;2245;48.136;13.428;2023-03-05T04:25:26;37.07;;;14.17;;
4464;SDS011;2245;48.136;13.428;2023-03-05T04:27:53;38.17;;;14.77;;
4464;SDS011;2245;48.136;13.428;2023-03-05T04:30:20;38.40;;;12.20;;
4464;SDS011;2245;48.136;13.428;2023-03-05T04:32:47;36.00;;;13.23;;
4464;SDS011;2245;48.136;13.428;2023-03-05T04:35:14;39.50;;;12.70;;
4464;SDS011;2245;48.136;13.428;2023-03-05T04:37:41;32.97;;;14.33;;
4464;SDS011;2245;48.136;13.428;2023-03-05T04:40:10;37.40;;;15.60;;
4464;SDS011;2245;48.136;13.428;2023-03-05T04:42:37;43.07;;;13.53;;
4464;SDS011;2245;48.136;13.428;2023-03-05T04:45:04;34.83;;;10.33;;
4464;SDS011;2245;48.136;13.428;2023-03-05T04:47:33;35.10;;;12.27;;
4464;SDS011;2245;48.136;13.428;2023-03-05T04:50:00;35.60;;;13.03;;
4464;SDS011;2245;48.136;13.428;2023-03-05T04:52:27;24.60;;;11.73;;
4464;SDS011;2245;48.136;13.428;2023-03-05T04:54:54;31.67;;;12.80;;
4464;SDS011;2245;48.136;13.428;2023-03-05T04:57:22;46.93;;;13.43;;
4464;SDS011;2245;48.136;13.428;2023-03-05T04:59:49;33.90;;;13.70;;
4464;SDS011;2245;48.136;13.428;2023-03-05T05:02:16;30.17;;;13.00;;
4464;SDS011;2245;48.136;13.428;2023-03-05T05:04:43;44.13;;;14.30;;
4464;SDS011;2245;48.136;13.428;2023-03-05T05:07:10;31.27;;;11.80;;
4464;SDS011;2245;48.136;13.428;2023-03-05T05:09:38;26.00;;;11.70;;
4464;SDS011;2245;48.136;13.428;2023-03-05T05:12:05;25.40;;;10.67;;
4464;SDS011;2245;48.136;13.428;2023-03-05T05:14:36;40.50;;;14.03;;
4464;SDS011;2245;48.136;13.428;2023-03-05T05:17:03;29.03;;;13.20;;
4464;SDS011;2245;48.136;13.428;2023-03-05T05:19:30;44.63;;;14.70;;
4464;SDS011;2245;48.136;13.428;2023-03-05T05:21:57;35.53;;;13.57;;
4464;SDS011;2245;48.136;13.428;2023-03-05T05:24:24;42.83;;;13.80;;
4464;SDS011;2245;48.136;13.428;2023-03-05T05:26:52;32.77;;;14.43;;
4464;SDS011;2245;48.136;13.428;2023-03-05T05:29:19;32.57;;;11.70;;
4464;SDS011;2245;48.136;13.428;2023-03-05T05:31:48;39.90;;;14.80;;
4464;SDS011;2245;48.136;13.428;2023-03-05T05:34:15;25.70;;;11.10;;
4464;SDS011;2245;48.136;13.428;2023-03-05T05:36:42;36.43;;;12.63;;
4464;SDS011;2245;48.136;13.428;2023-03-05T05:39:08;33.03;;;13.30;;
4464;SDS011;2245;48.136;13.428;2023-03-05T05:41:36;42.20;;;13.97;;
4464;SDS011;2245;48.136;13.428;2023-03-05T05:44:03;30.77;;;11.57;;
4464;SDS011;2245;48.136;13.428;2023-03-05T05:46:30;33.47;;;12.43;;
4464;SDS011;2245;48.136;13.428;2023-03-05T05:48:58;41.53;;;12.37;;
4464;SDS011;2245;48.136;13.428;2023-03-05T05:51:26;36.60;;;11.30;;
4464;SDS011;2245;48.136;13.428;2023-03-05T05:53:52;34.43;;;14.47;;
4464;SDS011;2245;48.136;13.428;2023-03-05T05:56:19;44.77;;;14.30;;
4464;SDS011;2245;48.136;13.428;2023-03-05T05:58:47;41.60;;;13.90;;
4464;SDS011;2245;48.136;13.428;2023-03-05T06:01:15;41.93;;;14.07;;
4464;SDS011;2245;48.136;13.428;2023-03-05T06:03:43;39.10;;;14.30;;
4464;SDS011;2245;48.136;13.428;2023-03-05T06:06:12;36.23;;;14.50;;
4464;SDS011;2245;48.136;13.428;2023-03-05T06:08:40;33.17;;;13.80;;
4464;SDS011;2245;48.136;13.428;2023-03-05T06:11:08;34.80;;;14.40;;
4464;SDS011;2245;48.136;13.428;2023-03-05T06:13:35;36.40;;;14.50;;
4464;SDS011;2245;48.136;13.428;2023-03-05T06:16:03;30.70;;;10.10;;
4464;SDS011;2245;48.136;13.428;2023-03-05T06:18:32;45.60;;;14.83;;
4464;SDS011;2245;48.136;13.428;2023-03-05T06:21:00;39.57;;;14.37;;
4464;SDS011;2245;48.136;13.428;2023-03-05T06:23:29;38.53;;;14.77;;
4464;SDS011;2245;48.136;13.428;2023-03-05T06:25:57;35.07;;;14.17;;
4464;SDS011;2245;48.136;13.428;2023-03-05T06:28:25;45.57;;;13.50;;
4464;SDS011;2245;48.136;13.428;2023-03-05T06:30:58;32.63;;;13.50;;
4464;SDS011;2245;48.136;13.428;2023-03-05T06:33:25;48.47;;;14.90;;
4464;SDS011;2245;48.136;13.428;2023-03-05T06:35:52;45.17;;;16.33;;
4464;SDS011;2245;48.136;13.428;2023-03-05T06:38:19;43.80;;;14.23;;
4464;SDS011;2245;48.136;13.428;2023-03-05T06:40:47;35.27;;;12.77;;
4464;SDS011;2245;48.136;13.428;2023-03-05T06:43:14;44.20;;;16.93;;
4464;SDS011;2245;48.136;13.428;2023-03-05T06:45:41;44.73;;;16.20;;
4464;SDS011;2245;48.136;13.428;2023-03-05T06:48:08;42.20;;;14.77;;
4464;SDS011;2245;48.136;13.428;2023-03-05T06:50:35;45.20;;;17.03;;
4464;SDS011;2245;48.136;13.428;2023-03-05T06:53:02;41.47;;;16.70;;
4464;SDS011;2245;48.136;13.428;2023-03-05T06:55:29;41.97;;;14.17;;
4464;SDS011;2245;48.136;13.428;2023-03-05T06:58:05;41.90;;;14.73;;
4464;SDS011;2245;48.136;13.428;2023-03-05T07:00:32;42.00;;;14.23;;
4464;SDS011;2245;48.136;13.428;2023-03-05T07:02:59;36.50;;;15.10;;
4464;SDS011;2245;48.136;13.428;2023-03-05T07:05:26;37.63;;;15.50;;
4464;SDS011;2245;48.136;13.428;2023-03-05T07:07:53;45.90;;;14.97;;
4464;SDS011;2245;48.136;13.428;2023-03-05T07:10:20;49.70;;;17.07;;
4464;SDS011;2245;48.136;13.428;2023-03-05T07:12:47;40.20;;;16.13;;
4464;SDS011;2245;48.136;13.428;2023-03-05T07:15:15;42.70;;;16.57;;
4464;SDS011;2245;48.136;13.428;2023-03-05T07:17:42;50.43;;;17.47;;
4464;SDS011;2245;48.136;13.428;2023-03-05T07:20:09;42.53;;;17.13;;
4464;SDS011;2245;48.136;13.428;2023-03-05T07:22:37;45.50;;;17.60;;
4464;SDS011;2245;48.136;13.428;2023-03-05T07:25:04;46.13;;;16.73;;
4464;SDS011;2245;48.136;13.428;2023-03-05T07:27:34;28.13;;;12.13;;
4464;SDS011;2245;48.136;13.428;2023-03-05T07:30:01;51.13;;;15.90;;
4464;SDS011;2245;48.136;13.428;2023-03-05T07:32:30;50.23;;;18.30;;
4464;SDS011;2245;48.136;13.428;2023-03-05T07:34:57;36.10;;;14.80;;
4464;SDS011;2245;48.136;13.428;2023-03-05T07:37:24;40.77;;;16.47;;
4464;SDS011;2245;48.136;13.428;2023-03-05T07:39:50;46.83;;;18.73;;
4464;SDS011;2245;48.136;13.428;2023-03-05T07:42:17;40.20;;;16.87;;
4464;SDS011;2245;48.136;13.428;2023-03-05T07:44:44;51.93;;;16.83;;
4464;SDS011;2245;48.136;13.428;2023-03-05T07:47:11;33.50;;;14.63;;
4464;SDS011;2245;48.136;13.428;2023-03-05T07:49:39;41.47;;;15.97;;
4464;SDS011;2245;48.136;13.428;2023-03-05T07:52:07;39.07;;;15.93;;
4464;SDS011;2245;48.136;13.428;2023-03-05T07:54:34;41.40;;;16.30;;
4464;SDS011;2245;48.136;13.428;2023-03-05T07:57:05;44.53;;;17.03;;
4464;SDS011;2245;48.136;13.428;2023-03-05T07:59:32;44.23;;;18.27;;
4464;SDS011;2245;48.136;13.428;2023-03-05T08:01:59;50.83;;;16.43;;
4464;SDS011;2245;48.136;13.428;2023-03-05T08:04:26;49.03;;;19.17;;
4464;SDS011;2245;48.136;13.428;2023-03-05T08:06:57;46.50;;;17.33;;
4464;SDS011;2245;48.136;13.428;2023-03-05T08:09:24;57.97;;;17.93;;
4464;SDS011;2245;48.136;13.428;2023-03-05T08:11:52;61.10;;;20.40;;
4464;SDS011;2245;48.136;13.428;2023-03-05T08:14:18;56.57;;;20.80;;
4464;SDS011;2245;48.136;13.428;2023-03-05T08:16:45;58.93;;;20.93;;
4464;SDS011;2245;48.136;13.428;2023-03-05T08:19:16;62.87;;;21.10;;
4464;SDS011;2245;48.136;13.428;2023-03-05T08:21:43;49.37;;;19.17;;
4464;SDS011;2245;48.136;13.428;2023-03-05T08:24:12;46.93;;;17.30;;
4464;SDS011;2245;48.136;13.428;2023-03-05T08:26:39;54.77;;;19.27;;
4464;SDS011;2245;48.136;13.428;2023-03-05T08:29:07;49.10;;;18.50;;
4464;SDS011;2245;48.136;13.428;2023-03-05T08:31:34;52.93;;;20.40;;
4464;SDS011;2245;48.136;13.428;2023-03-05T08:34:02;50.40;;;18.97;;
4464;SDS011;2245;48.136;13.428;2023-03-05T08:36:30;54.53;;;21.40;;
4464;SDS011;2245;48.136;13.428;2023-03-05T08:38:57;62.97;;;22.37;;
4464;SDS011;2245;48.136;13.428;2023-03-05T08:41:26;50.27;;;18.13;;
4464;SDS011;2245;48.136;13.428;2023-03-05T08:43:54;71.50;;;19.33;;
4464;SDS011;2245;48.136;13.428;2023-03-05T08:46:22;54.17;;;16.10;;
4464;SDS011;2245;48.136;13.428;2023-03-05T08:48:49;51.50;;;19.47;;
4464;SDS011;2245;48.136;13.428;2023-03-05T08:51:16;48.97;;;18.23;;
4464;SDS011;2245;48.136;13.428;2023-03-05T08:53:45;48.60;;;20.77;;
4464;SDS011;2245;48.136;13.428;2023-03-05T08:56:12;47.10;;;17.43;;
4464;SDS011;2245;48.136;13.428;2023-03-05T08:58:40;45.10;;;16.67;;
4464;SDS011;2245;48.136;13.428;2023-03-05T09:01:07;54.40;;;17.60;;
4464;SDS011;2245;48.136;13.428;2023-03-05T09:03:34;43.47;;;15.70;;
4464;SDS011;2245;48.136;13.428;2023-03-05T09:06:02;41.10;;;16.43;;
4464;SDS011;2245;48.136;13.428;2023-03-05T09:08:30;47.17;;;18.00;;
4464;SDS011;2245;48.136;13.428;2023-03-05T09:10:57;51.10;;;17.13;;
4464;SDS011;2245;48.136;13.428;2023-03-05T09:13:24;49.23;;;18.30;;
4464;SDS011;2245;48.136;13.428;2023-03-05T09:15:55;48.23;;;19.90;;
4464;SDS011;2245;48.136;13.428;2023-03-05T09:18:23;31.63;;;14.67;;
4464;SDS011;2245;48.136;13.428;2023-03-05T09:20:50;42.20;;;18.97;;
4464;SDS011;2245;48.136;13.428;2023-03-05T09:23:17;36.17;;;13.77;;
4464;SDS011;2245;48.136;13.428;2023-03-05T09:25:44;49.93;;;16.10;;
4464;SDS011;2245;48.136;13.428;2023-03-05T09:28:11;41.50;;;16.67;;
4464;SDS011;2245;48.136;13.428;2023-03-05T09:30:38;44.47;;;16.57;;
4464;SDS011;2245;48.136;13.428;2023-03-05T09:33:06;40.60;;;15.50;;
4464;SDS011;2245;48.136;13.428;2023-03-05T09:35:33;45.57;;;14.60;;
4464;SDS011;2245;48.136;13.428;2023-03-05T09:38:02;30.07;;;12.67;;
4464;SDS011;2245;48.136;13.428;2023-03-05T09:40:30;42.33;;;13.50;;
4464;SDS011;2245;48.136;13.428;2023-03-05T09:43:02;33.27;;;13.40;;
4464;SDS011;2245;48.136;13.428;2023-03-05T09:45:32;34.93;;;13.30;;
4464;SDS011;2245;48.136;13.428;2023-03-05T09:48:05;38.87;;;14.77;;
4464;SDS011;2245;48.136;13.428;2023-03-05T09:50:39;28.03;;;13.27;;
4464;SDS011;2245;48.136;13.428;2023-03-05T09:53:13;32.40;;;13.13;;
4464;SDS011;2245;48.136;13.428;2023-03-05T09:55:44;30.00;;;12.17;;
4464;SDS011;2245;48.136;13.428;2023-03-05T09:58:13;34.03;;;12.47;;
4464;SDS011;2245;48.136;13.428;2023-03-05T10:00:43;28.17;;;13.47;;
4464;SDS011;2245;48.136;13.428;2023-03-05T10:03:13;22.03;;;9.33;;
4464;SDS011;2245;48.136;13.428;2023-03-05T10:05:45;32.90;;;12.03;;
4464;SDS011;2245;48.136;13.428;2023-03-05T10:08:27;34.23;;;12.53;;
4464;SDS011;2245;48.136;13.428;2023-03-05T10:10:58;27.17;;;11.10;;
4464;SDS011;2245;48.136;13.428;2023-03-05T10:13:29;22.90;;;9.40;;
4464;SDS011;2245;48.136;13.428;2023-03-05T10:16:00;40.97;;;8.80;;
4464;SDS011;2245;48.136;13.428;2023-03-05T10:18:32;21.80;;;9.70;;
4464;SDS011;2245;48.136;13.428;2023-03-05T10:21:00;30.87;;;9.03;;
4464;SDS011;2245;48.136;13.428;2023-03-05T10:23:34;33.43;;;8.47;;
4464;SDS011;2245;48.136;13.428;2023-03-05T10:26:20;15.67;;;8.00;;
4464;SDS011;2245;48.136;13.428;2023-03-05T10:29:05;18.30;;;8.40;;
4464;SDS011;2245;48.136;13.428;2023-03-05T10:31:48;25.07;;;9.23;;
4464;SDS011;2245;48.136;13.428;2023-03-05T10:34:37;20.83;;;7.10;;
4464;SDS011;2245;48.136;13.428;2023-03-05T10:37:19;25.20;;;8.03;;
4464;SDS011;2245;48.136;13.428;2023-03-05T10:39:56;22.73;;;9.23;;
4464;SDS011;2245;48.136;13.428;2023-03-05T10:42:30;22.97;;;8.83;;
4464;SDS011;2245;48.136;13.428;2023-03-05T10:45:00;26.83;;;8.90;;
4464;SDS011;2245;48.136;13.428;2023-03-05T10:47:40;25.77;;;9.63;;
4464;SDS011;2245;48.136;13.428;2023-03-05T10:50:15;22.97;;;9.83;;
4464;SDS011;2245;48.136;13.428;2023-03-05T10:52:43;20.83;;;9.50;;
4464;SDS011;2245;48.136;13.428;2023-03-05T10:55:13;24.17;;;9.63;;
4464;SDS011;2245;48.136;13.428;2023-03-05T10:57:41;19.00;;;8.07;;
4464;SDS011;2245;48.136;13.428;2023-03-05T11:00:11;20.37;;;9.20;;
4464;SDS011;2245;48.136;13.428;2023-03-05T11:02:54;18.50;;;8.33;;
4464;SDS011;2245;48.136;13.428;2023-03-05T11:05:35;16.77;;;7.40;;
4464;SDS011;2245;48.136;13.428;2023-03-05T11:08:21;19.07;;;8.17;;
4464;SDS011;2245;48.136;13.428;2023-03-05T11:11:01;13.77;;;7.13;;
4464;SDS011;2245;48.136;13.428;2023-03-05T11:13:40;16.87;;;7.80;;
4464;SDS011;2245;48.136;13.428;2023-03-05T11:16:16;11.53;;;5.63;;
4464;SDS011;2245;48.136;13.428;2023-03-05T11:18:45;17.73;;;6.70;;
4464;SDS011;2245;48.136;13.428;2023-03-05T11:21:18;12.10;;;6.30;;
4464;SDS011;2245;48.136;13.428;2023-03-05T11:24:03;15.27;;;7.50;;
4464;SDS011;2245;48.136;13.428;2023-03-05T11:26:31;14.83;;;6.13;;
4464;SDS011;2245;48.136;13.428;2023-03-05T11:28:59;20.47;;;5.90;;
4464;SDS011;2245;48.136;13.428;2023-03-05T11:31:29;16.10;;;8.67;;
4464;SDS011;2245;48.136;13.428;2023-03-05T11:33:58;16.07;;;6.73;;
4464;SDS011;2245;48.136;13.428;2023-03-05T11:36:28;13.37;;;5.37;;
4464;SDS011;2245;48.136;13.428;2023-03-05T11:38:58;28.63;;;7.33;;
4464;SDS011;2245;48.136;13.428;2023-03-05T11:41:30;15.70;;;6.10;;
4464;SDS011;2245;48.136;13.428;2023-03-05T11:44:00;17.73;;;6.70;;
4464;SDS011;2245;48.136;13.428;2023-03-05T11:46:33;14.30;;;6.60;;
4464;SDS011;2245;48.136;13.428;2023-03-05T11:49:04;13.93;;;6.00;;
4464;SDS011;2245;48.136;13.428;2023-03-05T11:51:35;18.93;;;5.57;;
4464;SDS011;2245;48.136;13.428;2023-03-05T11:54:07;8.97;;;5.30;;
4464;SDS011;2245;48.136;13.428;2023-03-05T11:56:40;17.13;;;7.20;;
4464;SDS011;2245;48.136;13.428;2023-03-05T11:59:10;16.07;;;7.30;;
4464;SDS011;2245;48.136;13.428;2023-03-05T12:01:41;13.13;;;6.80;;
4464;SDS011;2245;48.136;13.428;2023-03-05T12:04:10;18.60;;;8.10;;
4464;SDS011;2245;48.136;13.428;2023-03-05T12:06:39;20.33;;;8.20;;
4464;SDS011;2245;48.136;13.428;2023-03-05T12:09:11;17.63;;;6.70;;
4464;SDS011;2245;48.136;13.428;2023-03-05T12:11:41;21.10;;;8.17;;
4464;SDS011;2245;48.136;13.428;2023-03-05T12:14:09;22.00;;;8.60;;
4464;SDS011;2245;48.136;13.428;2023-03-05T12:16:42;20.60;;;7.27;;
4464;SDS011;2245;48.136;13.428;2023-03-05T12:19:18;12.63;;;7.23;;
4464;SDS011;2245;48.136;13.428;2023-03-05T12:21:56;18.80;;;8.30;;
4464;SDS011;2245;48.136;13.428;2023-03-05T12:24:33;15.40;;;9.07;;
4464;SDS011;2245;48.136;13.428;2023-03-05T12:27:09;17.27;;;8.20;;
4464;SDS011;2245;48.136;13.428;2023-03-05T12:29:40;17.67;;;6.87;;
4464;SDS011;2245;48.136;13.428;2023-03-05T12:35:31;15.20;;;8.63;;
4464;SDS011;2245;48.136;13.428;2023-03-05T12:38:12;23.80;;;10.80;;
4464;SDS011;2245;48.136;13.428;2023-03-05T12:40:44;22.87;;;8.20;;
4464;SDS011;2245;48.136;13.428;2023-03-05T12:48:50;19.50;;;10.57;;
4464;SDS011;2245;48.136;13.428;2023-03-05T12:51:27;26.10;;;11.07;;
4464;SDS011;2245;48.136;13.428;2023-03-05T12:53:57;19.40;;;7.47;;
4464;SDS011;2245;48.136;13.428;2023-03-05T12:56:46;12.77;;;6.60;;
4464;SDS011;2245;48.136;13.428;2023-03-05T12:59:13;17.90;;;7.83;;
4464;SDS011;2245;48.136;13.428;2023-03-05T13:01:41;25.73;;;8.10;;
4464;SDS011;2245;48.136;13.428;2023-03-05T13:04:13;24.87;;;7.67;;
4464;SDS011;2245;48.136;13.428;2023-03-05T13:06:44;20.70;;;9.33;;
4464;SDS011;2245;48.136;13.428;2023-03-05T13:09:22;21.97;;;9.27;;
4464;SDS011;2245;48.136;13.428;2023-03-05T13:11:51;21.07;;;10.60;;
4464;SDS011;2245;48.136;13.428;2023-03-05T13:14:26;26.00;;;8.20;;
4464;SDS011;2245;48.136;13.428;2023-03-05T13:16:55;20.03;;;9.37;;
4464;SDS011;2245;48.136;13.428;2023-03-05T13:19:22;23.90;;;7.83;;
4464;SDS011;2245;48.136;13.428;2023-03-05T13:21:56;20.73;;;8.10;;
4464;SDS011;2245;48.136;13.428;2023-03-05T13:24:25;24.40;;;9.70;;
4464;SDS011;2245;48.136;13.428;2023-03-05T13:26:53;14.27;;;7.90;;
4464;SDS011;2245;48.136;13.428;2023-03-05T13:29:23;16.10;;;7.90;;
4464;SDS011;2245;48.136;13.428;2023-03-05T13:31:53;22.30;;;7.97;;
4464;SDS011;2245;48.136;13.428;2023-03-05T13:34:21;19.20;;;8.70;;
4464;SDS011;2245;48.136;13.428;2023-03-05T13:36:51;21.17;;;8.80;;
4464;SDS011;2245;48.136;13.428;2023-03-05T13:39:21;28.33;;;8.87;;
4464;SDS011;2245;48.136;13.428;2023-03-05T13:41:56;31.40;;;9.60;;
4464;SDS011;2245;48.136;13.428;2023-03-05T13:44:24;31.43;;;9.50;;
4464;SDS011;2245;48.136;13.428;2023-03-05T13:47:04;24.73;;;10.20;;
4464;SDS011;2245;48.136;13.428;2023-03-05T13:49:35;22.10;;;8.70;;
4464;SDS011;2245;48.136;13.428;2023-03-05T13:52:02;25.20;;;8.43;;
4464;SDS011;2245;48.136;13.428;2023-03-05T13:54:31;20.97;;;8.83;;
4464;SDS011;2245;48.136;13.428;2023-03-05T13:56:59;16.17;;;8.73;;
4464;SDS011;2245;48.136;13.428;2023-03-05T13:59:29;25.07;;;9.50;;
4464;SDS011;2245;48.136;13.428;2023-03-05T14:01:56;16.27;;;8.50;;
4464;SDS011;2245;48.136;13.428;2023-03-05T14:04:24;26.07;;;6.70;;
4464;SDS011;2245;48.136;13.428;2023-03-05T14:06:56;23.03;;;9.07;;
4464;SDS011;2245;48.136;13.428;2023-03-05T14:09:24;21.80;;;8.83;;
4464;SDS011;2245;48.136;13.428;2023-03-05T14:12:01;23.77;;;8.63;;
4464;SDS011;2245;48.136;13.428;2023-03-05T14:14:30;23.13;;;10.37;;
4464;SDS011;2245;48.136;13.428;2023-03-05T14:20:04;20.20;;;7.70;;
4464;SDS011;2245;48.136;13.428;2023-03-05T14:22:33;23.37;;;10.27;;
4464;SDS011;2245;48.136;13.428;2023-03-05T14:25:01;20.30;;;8.90;;
4464;SDS011;2245;48.136;13.428;2023-03-05T14:27:30;18.50;;;8.10;;
4464;SDS011;2245;48.136;13.428;2023-03-05T14:29:58;16.30;;;6.90;;
4464;SDS011;2245;48.136;13.428;2023-03-05T14:32:27;13.90;;;7.27;;
4464;SDS011;2245;48.136;13.428;2023-03-05T14:34:57;17.67;;;6.17;;
4464;SDS011;2245;48.136;13.428;2023-03-05T14:37:26;20.20;;;7.10;;
4464;SDS011;2245;48.136;13.428;2023-03-05T14:39:55;15.60;;;8.17;;
4464;SDS011;2245;48.136;13.428;2023-03-05T14:42:24;20.67;;;8.00;;
4464;SDS011;2245;48.136;13.428;2023-03-05T14:44:54;21.60;;;7.63;;
4464;SDS011;2245;48.136;13.428;2023-03-05T14:47:21;12.40;;;6.80;;
4464;SDS011;2245;48.136;13.428;2023-03-05T14:49:48;19.63;;;7.77;;
4464;SDS011;2245;48.136;13.428;2023-03-05T14:52:15;19.00;;;7.40;;
4464;SDS011;2245;48.136;13.428;2023-03-05T14:54:42;15.20;;;7.50;;
4464;SDS011;2245;48.136;13.428;2023-03-05T14:57:10;20.17;;;6.97;;
4464;SDS011;2245;48.136;13.428;2023-03-05T14:59:40;22.20;;;9.93;;
4464;SDS011;2245;48.136;13.428;2023-03-05T15:02:11;15.83;;;8.17;;